sensor_id;sensor_type;location;lat;lon;timestamp;P1;durP1;ratioP1;P2;durP2;ratioP2
80199;SDS011;69520;44.900;-0.764;2023-10-13T00:02:02;14.70;;;7.32;;
80199;SDS011;69520;44.900;-0.764;2023-10-13T00:04:32;14.55;;;7.30;;
80199;SDS011;69520;44.900;-0.764;2023-10-13T00:07:02;13.90;;;7.00;;
80199;SDS011;69520;44.900;-0.764;2023-10-13T00:09:30;13.23;;;6.55;;
80199;SDS011;69520;44.900;-0.764;2023-10-13T00:12:02;14.85;;;6.80;;
80199;SDS011;69520;44.900;-0.764;2023-10-13T00:14:29;13.32;;;6.80;;
80199;SDS011;69520;44.900;-0.764;2023-10-13T00:17:02;16.15;;;7.53;;
80199;SDS011;69520;44.900;-0.764;2023-10-13T00:19:29;17.93;;;7.30;;
80199;SDS011;69520;44.900;-0.764;2023-10-13T00:22:24;13.13;;;6.85;;
80199;SDS011;69520;44.900;-0.764;2023-10-13T00:24:52;12.43;;;6.47;;
80199;SDS011;69520;44.900;-0.764;2023-10-13T00:27:23;13.02;;;6.55;;
80199;SDS011;69520;44.900;-0.764;2023-10-13T00:30:02;16.38;;;6.60;;
80199;SDS011;69520;44.900;-0.764;2023-10-13T00:32:43;14.37;;;6.73;;
80199;SDS011;69520;44.900;-0.764;2023-10-13T00:35:11;13.05;;;6.10;;
80199;SDS011;69520;44.900;-0.764;2023-10-13T00:37:39;17.08;;;7.32;;
80199;SDS011;69520;44.900;-0.764;2023-10-13T00:40:11;14.45;;;6.43;;
80199;SDS011;69520;44.900;-0.764;2023-10-13T00:43:04;14.95;;;6.70;;
80199;SDS011;69520;44.900;-0.764;2023-10-13T00:45:46;13.10;;;7.10;;
80199;SDS011;69520;44.900;-0.764;2023-10-13T00:48:32;13.07;;;6.72;;
80199;SDS011;69520;44.900;-0.764;2023-10-13T00:50:59;14.23;;;6.60;;
80199;SDS011;69520;44.900;-0.764;2023-10-13T00:53:28;14.00;;;6.05;;
80199;SDS011;69520;44.900;-0.764;2023-10-13T00:55:54;11.30;;;5.82;;
80199;SDS011;69520;44.900;-0.764;2023-10-13T00:58:22;13.20;;;6.00;;
80199;SDS011;69520;44.900;-0.764;2023-10-13T01:00:50;13.00;;;6.00;;
80199;SDS011;69520;44.900;-0.764;2023-10-13T01:03:22;12.13;;;5.72;;
80199;SDS011;69520;44.900;-0.764;2023-10-13T01:05:51;13.70;;;5.95;;
80199;SDS011;69520;44.900;-0.764;2023-10-13T01:08:19;13.40;;;6.10;;
80199;SDS011;69520;44.900;-0.764;2023-10-13T01:10:48;13.37;;;5.90;;
80199;SDS011;69520;44.900;-0.764;2023-10-13T01:13:14;12.82;;;5.75;;
80199;SDS011;69520;44.900;-0.764;2023-10-13T01:15:42;12.35;;;6.28;;
80199;SDS011;69520;44.900;-0.764;2023-10-13T01:18:09;12.52;;;5.72;;
80199;SDS011;69520;44.900;-0.764;2023-10-13T01:20:39;12.82;;;5.82;;
80199;SDS011;69520;44.900;-0.764;2023-10-13T01:23:17;13.53;;;6.37;;
80199;SDS011;69520;44.900;-0.764;2023-10-13T01:25:43;12.35;;;5.68;;
80199;SDS011;69520;44.900;-0.764;2023-10-13T01:28:10;11.77;;;5.75;;
80199;SDS011;69520;44.900;-0.764;2023-10-13T01:30:40;11.32;;;5.53;;
80199;SDS011;69520;44.900;-0.764;2023-10-13T01:33:07;13.13;;;5.70;;
80199;SDS011;69520;44.900;-0.764;2023-10-13T01:35:35;12.97;;;5.37;;
80199;SDS011;69520;44.900;-0.764;2023-10-13T01:38:06;12.38;;;5.13;;
80199;SDS011;69520;44.900;-0.764;2023-10-13T01:40:33;13.88;;;5.78;;
80199;SDS011;69520;44.900;-0.764;2023-10-13T01:43:00;12.50;;;5.10;;
80199;SDS011;69520;44.900;-0.764;2023-10-13T01:45:26;13.90;;;5.55;;
80199;SDS011;69520;44.900;-0.764;2023-10-13T01:47:55;12.03;;;5.10;;
80199;SDS011;69520;44.900;-0.764;2023-10-13T01:50:22;11.97;;;5.57;;
80199;SDS011;69520;44.900;-0.764;2023-10-13T01:52:55;13.05;;;5.60;;
80199;SDS011;69520;44.900;-0.764;2023-10-13T01:55:40;12.60;;;5.32;;
80199;SDS011;69520;44.900;-0.764;2023-10-13T01:58:12;12.60;;;5.60;;
80199;SDS011;69520;44.900;-0.764;2023-10-13T02:00:40;11.85;;;5.22;;
80199;SDS011;69520;44.900;-0.764;2023-10-13T02:03:08;11.20;;;5.33;;
80199;SDS011;69520;44.900;-0.764;2023-10-13T02:05:40;14.75;;;6.07;;
80199;SDS011;69520;44.900;-0.764;2023-10-13T02:08:12;11.30;;;5.20;;
80199;SDS011;69520;44.900;-0.764;2023-10-13T02:10:43;11.57;;;5.45;;
80199;SDS011;69520;44.900;-0.764;2023-10-13T02:13:19;10.75;;;5.60;;
80199;SDS011;69520;44.900;-0.764;2023-10-13T02:15:47;15.00;;;5.80;;
80199;SDS011;69520;44.900;-0.764;2023-10-13T02:18:14;13.40;;;5.78;;
80199;SDS011;69520;44.900;-0.764;2023-10-13T02:20:51;11.07;;;5.50;;
80199;SDS011;69520;44.900;-0.764;2023-10-13T02:23:21;11.80;;;5.25;;
80199;SDS011;69520;44.900;-0.764;2023-10-13T02:25:47;14.93;;;5.35;;
80199;SDS011;69520;44.900;-0.764;2023-10-13T02:28:17;12.00;;;5.50;;
80199;SDS011;69520;44.900;-0.764;2023-10-13T02:30:47;13.90;;;5.50;;
80199;SDS011;69520;44.900;-0.764;2023-10-13T02:33:18;12.15;;;5.38;;
80199;SDS011;69520;44.900;-0.764;2023-10-13T02:35:48;13.50;;;5.65;;
80199;SDS011;69520;44.900;-0.764;2023-10-13T02:38:20;10.52;;;5.13;;
80199;SDS011;69520;44.900;-0.764;2023-10-13T02:40:58;11.10;;;4.70;;
80199;SDS011;69520;44.900;-0.764;2023-10-13T02:43:36;14.60;;;4.82;;
80199;SDS011;69520;44.900;-0.764;2023-10-13T02:46:03;10.23;;;4.53;;
80199;SDS011;69520;44.900;-0.764;2023-10-13T02:48:29;11.57;;;4.50;;
80199;SDS011;69520;44.900;-0.764;2023-10-13T02:50:59;11.50;;;4.50;;
80199;SDS011;69520;44.900;-0.764;2023-10-13T02:53:32;10.20;;;4.90;;
80199;SDS011;69520;44.900;-0.764;2023-10-13T02:55:58;11.95;;;4.93;;
80199;SDS011;69520;44.900;-0.764;2023-10-13T02:58:30;12.60;;;4.72;;
80199;SDS011;69520;44.900;-0.764;2023-10-13T03:01:10;10.63;;;4.45;;
80199;SDS011;69520;44.900;-0.764;2023-10-13T03:03:43;11.30;;;4.60;;
80199;SDS011;69520;44.900;-0.764;2023-10-13T03:06:12;10.93;;;4.63;;
80199;SDS011;69520;44.900;-0.764;2023-10-13T03:08:38;12.23;;;5.03;;
80199;SDS011;69520;44.900;-0.764;2023-10-13T03:11:04;11.82;;;4.78;;
80199;SDS011;69520;44.900;-0.764;2023-10-13T03:13:31;11.00;;;4.57;;
80199;SDS011;69520;44.900;-0.764;2023-10-13T03:16:00;11.82;;;4.60;;
80199;SDS011;69520;44.900;-0.764;2023-10-13T03:18:28;10.63;;;4.60;;
80199;SDS011;69520;44.900;-0.764;2023-10-13T03:20:58;12.00;;;4.70;;
80199;SDS011;69520;44.900;-0.764;2023-10-13T03:23:27;13.13;;;5.30;;
80199;SDS011;69520;44.900;-0.764;2023-10-13T03:25:53;11.63;;;4.63;;
80199;SDS011;69520;44.900;-0.764;2023-10-13T03:28:21;12.30;;;5.07;;
80199;SDS011;69520;44.900;-0.764;2023-10-13T03:30:51;11.93;;;5.00;;
80199;SDS011;69520;44.900;-0.764;2023-10-13T03:33:19;10.85;;;5.03;;
80199;SDS011;69520;44.900;-0.764;2023-10-13T03:35:58;12.20;;;4.72;;
80199;SDS011;69520;44.900;-0.764;2023-10-13T03:38:31;12.07;;;4.70;;
80199;SDS011;69520;44.900;-0.764;2023-10-13T03:41:01;11.57;;;4.55;;
80199;SDS011;69520;44.900;-0.764;2023-10-13T03:43:44;9.37;;;4.43;;
80199;SDS011;69520;44.900;-0.764;2023-10-13T03:46:10;11.65;;;4.38;;
80199;SDS011;69520;44.900;-0.764;2023-10-13T03:48:36;12.88;;;4.80;;
80199;SDS011;69520;44.900;-0.764;2023-10-13T03:51:19;11.45;;;4.82;;
80199;SDS011;69520;44.900;-0.764;2023-10-13T03:53:45;11.50;;;4.50;;
80199;SDS011;69520;44.900;-0.764;2023-10-13T03:56:17;13.30;;;5.40;;
80199;SDS011;69520;44.900;-0.764;2023-10-13T03:58:54;12.68;;;4.70;;
80199;SDS011;69520;44.900;-0.764;2023-10-13T04:01:23;12.88;;;5.05;;
80199;SDS011;69520;44.900;-0.764;2023-10-13T04:03:57;11.50;;;4.72;;
80199;SDS011;69520;44.900;-0.764;2023-10-13T04:06:31;10.48;;;4.43;;
80199;SDS011;69520;44.900;-0.764;2023-10-13T04:12:06;13.50;;;4.82;;
80199;SDS011;69520;44.900;-0.764;2023-10-13T04:14:42;9.95;;;4.40;;
80199;SDS011;69520;44.900;-0.764;2023-10-13T04:17:20;10.65;;;4.28;;
80199;SDS011;69520;44.900;-0.764;2023-10-13T04:19:59;11.90;;;5.45;;
80199;SDS011;69520;44.900;-0.764;2023-10-13T04:22:31;10.83;;;4.40;;
80199;SDS011;69520;44.900;-0.764;2023-10-13T04:25:13;11.00;;;4.18;;
80199;SDS011;69520;44.900;-0.764;2023-10-13T04:27:58;9.45;;;3.95;;
80199;SDS011;69520;44.900;-0.764;2023-10-13T04:33:32;11.25;;;4.28;;
80199;SDS011;69520;44.900;-0.764;2023-10-13T04:38:49;9.93;;;4.55;;
80199;SDS011;69520;44.900;-0.764;2023-10-13T04:41:18;12.32;;;4.35;;
80199;SDS011;69520;44.900;-0.764;2023-10-13T04:43:47;10.27;;;4.13;;
80199;SDS011;69520;44.900;-0.764;2023-10-13T04:46:30;12.10;;;3.80;;
80199;SDS011;69520;44.900;-0.764;2023-10-13T04:49:11;11.27;;;4.27;;
80199;SDS011;69520;44.900;-0.764;2023-10-13T04:51:53;10.25;;;4.47;;
80199;SDS011;69520;44.900;-0.764;2023-10-13T04:54:34;9.85;;;3.88;;
80199;SDS011;69520;44.900;-0.764;2023-10-13T04:59:49;10.15;;;4.15;;
80199;SDS011;69520;44.900;-0.764;2023-10-13T05:02:34;9.10;;;3.87;;
80199;SDS011;69520;44.900;-0.764;2023-10-13T05:05:21;11.52;;;4.05;;
80199;SDS011;69520;44.900;-0.764;2023-10-13T05:07:56;13.13;;;4.57;;
80199;SDS011;69520;44.900;-0.764;2023-10-13T05:10:41;11.77;;;4.40;;
80199;SDS011;69520;44.900;-0.764;2023-10-13T05:13:25;13.20;;;4.60;;
80199;SDS011;69520;44.900;-0.764;2023-10-13T05:16:10;11.63;;;4.23;;
80199;SDS011;69520;44.900;-0.764;2023-10-13T05:18:54;10.25;;;3.90;;
80199;SDS011;69520;44.900;-0.764;2023-10-13T05:21:39;11.48;;;4.30;;
80199;SDS011;69520;44.900;-0.764;2023-10-13T05:24:23;9.77;;;4.18;;
80199;SDS011;69520;44.900;-0.764;2023-10-13T05:27:08;12.43;;;4.32;;
80199;SDS011;69520;44.900;-0.764;2023-10-13T05:29:53;12.03;;;4.03;;
80199;SDS011;69520;44.900;-0.764;2023-10-13T05:32:37;11.23;;;4.22;;
80199;SDS011;69520;44.900;-0.764;2023-10-13T05:35:23;13.70;;;3.88;;
80199;SDS011;69520;44.900;-0.764;2023-10-13T05:38:08;10.02;;;3.80;;
80199;SDS011;69520;44.900;-0.764;2023-10-13T05:40:53;11.50;;;4.30;;
80199;SDS011;69520;44.900;-0.764;2023-10-13T05:43:38;9.63;;;4.00;;
80199;SDS011;69520;44.900;-0.764;2023-10-13T05:46:23;11.30;;;4.05;;
80199;SDS011;69520;44.900;-0.764;2023-10-13T05:48:52;12.20;;;4.28;;
80199;SDS011;69520;44.900;-0.764;2023-10-13T05:51:27;10.30;;;4.00;;
80199;SDS011;69520;44.900;-0.764;2023-10-13T05:54:12;12.10;;;4.30;;
80199;SDS011;69520;44.900;-0.764;2023-10-13T05:56:41;12.67;;;4.03;;
80199;SDS011;69520;44.900;-0.764;2023-10-13T05:59:26;9.80;;;4.40;;
80199;SDS011;69520;44.900;-0.764;2023-10-13T06:02:11;13.80;;;4.82;;
80199;SDS011;69520;44.900;-0.764;2023-10-13T06:04:56;10.30;;;4.10;;
80199;SDS011;69520;44.900;-0.764;2023-10-13T06:07:41;11.43;;;4.32;;
80199;SDS011;69520;44.900;-0.764;2023-10-13T06:10:26;10.90;;;4.40;;
80199;SDS011;69520;44.900;-0.764;2023-10-13T06:13:10;11.10;;;4.33;;
80199;SDS011;69520;44.900;-0.764;2023-10-13T06:15:55;12.35;;;4.45;;
80199;SDS011;69520;44.900;-0.764;2023-10-13T06:18:39;10.88;;;4.40;;
80199;SDS011;69520;44.900;-0.764;2023-10-13T06:21:24;10.82;;;4.43;;
80199;SDS011;69520;44.900;-0.764;2023-10-13T06:24:08;13.82;;;4.75;;
80199;SDS011;69520;44.900;-0.764;2023-10-13T06:26:53;10.43;;;4.33;;
80199;SDS011;69520;44.900;-0.764;2023-10-13T06:29:37;10.15;;;4.93;;
80199;SDS011;69520;44.900;-0.764;2023-10-13T06:32:03;10.93;;;4.65;;
80199;SDS011;69520;44.900;-0.764;2023-10-13T06:34:38;12.38;;;4.97;;
80199;SDS011;69520;44.900;-0.764;2023-10-13T06:37:19;11.57;;;4.45;;
80199;SDS011;69520;44.900;-0.764;2023-10-13T06:39:48;12.13;;;4.67;;
80199;SDS011;69520;44.900;-0.764;2023-10-13T06:42:15;12.43;;;4.53;;
80199;SDS011;69520;44.900;-0.764;2023-10-13T06:44:42;11.00;;;4.63;;
80199;SDS011;69520;44.900;-0.764;2023-10-13T06:47:12;12.52;;;4.85;;
80199;SDS011;69520;44.900;-0.764;2023-10-13T06:49:41;12.60;;;4.35;;
80199;SDS011;69520;44.900;-0.764;2023-10-13T06:52:10;10.63;;;5.00;;
80199;SDS011;69520;44.900;-0.764;2023-10-13T06:54:36;12.48;;;4.43;;
80199;SDS011;69520;44.900;-0.764;2023-10-13T06:57:04;12.35;;;4.78;;
80199;SDS011;69520;44.900;-0.764;2023-10-13T06:59:32;9.77;;;4.60;;
80199;SDS011;69520;44.900;-0.764;2023-10-13T07:02:01;10.85;;;5.15;;
80199;SDS011;69520;44.900;-0.764;2023-10-13T07:04:31;11.67;;;4.63;;
80199;SDS011;69520;44.900;-0.764;2023-10-13T07:06:57;11.25;;;5.22;;
80199;SDS011;69520;44.900;-0.764;2023-10-13T07:09:25;10.80;;;4.85;;
80199;SDS011;69520;44.900;-0.764;2023-10-13T07:12:04;11.02;;;4.78;;
80199;SDS011;69520;44.900;-0.764;2023-10-13T07:14:44;12.55;;;4.82;;
80199;SDS011;69520;44.900;-0.764;2023-10-13T07:17:16;13.30;;;5.13;;
80199;SDS011;69520;44.900;-0.764;2023-10-13T07:19:49;10.75;;;5.05;;
80199;SDS011;69520;44.900;-0.764;2023-10-13T07:22:18;11.77;;;4.85;;
80199;SDS011;69520;44.900;-0.764;2023-10-13T07:24:45;10.10;;;4.50;;
80199;SDS011;69520;44.900;-0.764;2023-10-13T07:27:23;11.60;;;5.30;;
80199;SDS011;69520;44.900;-0.764;2023-10-13T07:29:53;12.13;;;4.60;;
80199;SDS011;69520;44.900;-0.764;2023-10-13T07:32:42;13.45;;;5.15;;
80199;SDS011;69520;44.900;-0.764;2023-10-13T07:35:17;10.88;;;5.18;;
80199;SDS011;69520;44.900;-0.764;2023-10-13T07:37:44;12.98;;;5.25;;
80199;SDS011;69520;44.900;-0.764;2023-10-13T07:40:13;11.68;;;5.07;;
80199;SDS011;69520;44.900;-0.764;2023-10-13T07:42:49;16.17;;;5.13;;
80199;SDS011;69520;44.900;-0.764;2023-10-13T07:45:15;10.90;;;5.00;;
80199;SDS011;69520;44.900;-0.764;2023-10-13T07:47:50;12.90;;;5.05;;
80199;SDS011;69520;44.900;-0.764;2023-10-13T07:50:16;10.13;;;5.03;;
80199;SDS011;69520;44.900;-0.764;2023-10-13T07:52:50;12.60;;;4.75;;
80199;SDS011;69520;44.900;-0.764;2023-10-13T07:55:52;13.20;;;4.87;;
80199;SDS011;69520;44.900;-0.764;2023-10-13T07:58:21;11.93;;;5.00;;
80199;SDS011;69520;44.900;-0.764;2023-10-13T08:00:53;10.82;;;5.20;;
80199;SDS011;69520;44.900;-0.764;2023-10-13T08:03:35;11.13;;;5.20;;
80199;SDS011;69520;44.900;-0.764;2023-10-13T08:06:10;11.48;;;5.00;;
80199;SDS011;69520;44.900;-0.764;2023-10-13T08:08:36;10.57;;;4.90;;
80199;SDS011;69520;44.900;-0.764;2023-10-13T08:11:09;11.90;;;4.88;;
80199;SDS011;69520;44.900;-0.764;2023-10-13T08:13:39;10.85;;;5.13;;
80199;SDS011;69520;44.900;-0.764;2023-10-13T08:16:11;16.88;;;5.15;;
80199;SDS011;69520;44.900;-0.764;2023-10-13T08:18:45;11.38;;;4.90;;
80199;SDS011;69520;44.900;-0.764;2023-10-13T08:21:14;12.87;;;5.20;;
80199;SDS011;69520;44.900;-0.764;2023-10-13T08:23:49;12.02;;;5.22;;
80199;SDS011;69520;44.900;-0.764;2023-10-13T08:26:21;11.70;;;5.47;;
80199;SDS011;69520;44.900;-0.764;2023-10-13T08:29:06;12.70;;;5.30;;
80199;SDS011;69520;44.900;-0.764;2023-10-13T08:31:53;11.68;;;4.90;;
80199;SDS011;69520;44.900;-0.764;2023-10-13T08:34:29;11.50;;;5.37;;
80199;SDS011;69520;44.900;-0.764;2023-10-13T08:37:03;12.73;;;4.88;;
80199;SDS011;69520;44.900;-0.764;2023-10-13T08:39:44;9.80;;;4.88;;
80199;SDS011;69520;44.900;-0.764;2023-10-13T08:47:48;12.40;;;4.97;;
80199;SDS011;69520;44.900;-0.764;2023-10-13T08:50:36;11.65;;;5.75;;
80199;SDS011;69520;44.900;-0.764;2023-10-13T08:53:27;17.95;;;5.72;;
80199;SDS011;69520;44.900;-0.764;2023-10-13T08:58:42;11.40;;;5.35;;
80199;SDS011;69520;44.900;-0.764;2023-10-13T09:01:35;10.70;;;4.53;;
80199;SDS011;69520;44.900;-0.764;2023-10-13T09:04:14;12.60;;;4.78;;
80199;SDS011;69520;44.900;-0.764;2023-10-13T09:09:24;10.95;;;4.80;;
80199;SDS011;69520;44.900;-0.764;2023-10-13T09:12:22;11.85;;;4.72;;
80199;SDS011;69520;44.900;-0.764;2023-10-13T09:14:59;11.57;;;5.00;;
80199;SDS011;69520;44.900;-0.764;2023-10-13T09:17:32;9.43;;;4.32;;
80199;SDS011;69520;44.900;-0.764;2023-10-13T09:19:58;13.18;;;4.43;;
80199;SDS011;69520;44.900;-0.764;2023-10-13T09:22:44;9.15;;;4.38;;
80199;SDS011;69520;44.900;-0.764;2023-10-13T09:25:33;11.25;;;4.40;;
80199;SDS011;69520;44.900;-0.764;2023-10-13T09:28:21;9.93;;;4.50;;
80199;SDS011;69520;44.900;-0.764;2023-10-13T09:30:53;12.38;;;4.40;;
80199;SDS011;69520;44.900;-0.764;2023-10-13T09:33:24;11.43;;;4.03;;
80199;SDS011;69520;44.900;-0.764;2023-10-13T09:35:54;9.05;;;4.10;;
80199;SDS011;69520;44.900;-0.764;2023-10-13T09:38:24;9.65;;;4.88;;
80199;SDS011;69520;44.900;-0.764;2023-10-13T09:40:50;9.53;;;4.00;;
80199;SDS011;69520;44.900;-0.764;2023-10-13T09:43:23;10.85;;;4.47;;
80199;SDS011;69520;44.900;-0.764;2023-10-13T09:45:50;10.02;;;4.60;;
80199;SDS011;69520;44.900;-0.764;2023-10-13T09:48:34;10.95;;;4.57;;
80199;SDS011;69520;44.900;-0.764;2023-10-13T09:51:04;11.88;;;4.20;;
80199;SDS011;69520;44.900;-0.764;2023-10-13T09:53:33;12.40;;;4.13;;
80199;SDS011;69520;44.900;-0.764;2023-10-13T09:56:03;12.13;;;4.32;;
80199;SDS011;69520;44.900;-0.764;2023-10-13T09:59:00;9.63;;;4.00;;
80199;SDS011;69520;44.900;-0.764;2023-10-13T10:01:33;10.45;;;4.00;;
80199;SDS011;69520;44.900;-0.764;2023-10-13T10:04:06;10.82;;;4.57;;
80199;SDS011;69520;44.900;-0.764;2023-10-13T10:06:33;13.43;;;4.13;;
80199;SDS011;69520;44.900;-0.764;2023-10-13T10:09:11;11.10;;;4.10;;
80199;SDS011;69520;44.900;-0.764;2023-10-13T10:14:33;10.07;;;4.00;;
80199;SDS011;69520;44.900;-0.764;2023-10-13T10:17:06;10.85;;;5.45;;
80199;SDS011;69520;44.900;-0.764;2023-10-13T10:19:51;9.07;;;4.23;;
80199;SDS011;69520;44.900;-0.764;2023-10-13T10:22:28;8.38;;;3.78;;
80199;SDS011;69520;44.900;-0.764;2023-10-13T10:25:04;10.60;;;4.03;;
80199;SDS011;69520;44.900;-0.764;2023-10-13T10:27:56;11.32;;;4.75;;
80199;SDS011;69520;44.900;-0.764;2023-10-13T10:30:26;9.30;;;3.97;;
80199;SDS011;69520;44.900;-0.764;2023-10-13T10:32:58;8.93;;;3.90;;
80199;SDS011;69520;44.900;-0.764;2023-10-13T10:35:24;10.15;;;4.20;;
80199;SDS011;69520;44.900;-0.764;2023-10-13T10:41:02;11.82;;;4.30;;
80199;SDS011;69520;44.900;-0.764;2023-10-13T10:43:36;8.25;;;3.85;;
80199;SDS011;69520;44.900;-0.764;2023-10-13T10:48:38;11.15;;;4.10;;
80199;SDS011;69520;44.900;-0.764;2023-10-13T10:51:08;10.63;;;4.10;;
80199;SDS011;69520;44.900;-0.764;2023-10-13T10:53:55;10.52;;;4.18;;
80199;SDS011;69520;44.900;-0.764;2023-10-13T10:56:23;8.65;;;4.00;;
80199;SDS011;69520;44.900;-0.764;2023-10-13T10:59:02;8.87;;;4.50;;
80199;SDS011;69520;44.900;-0.764;2023-10-13T11:01:44;12.30;;;4.25;;
80199;SDS011;69520;44.900;-0.764;2023-10-13T11:04:16;8.07;;;4.13;;
80199;SDS011;69520;44.900;-0.764;2023-10-13T11:06:46;9.40;;;4.35;;
80199;SDS011;69520;44.900;-0.764;2023-10-13T11:09:12;8.13;;;4.22;;
80199;SDS011;69520;44.900;-0.764;2023-10-13T11:14:44;8.80;;;4.40;;
80199;SDS011;69520;44.900;-0.764;2023-10-13T11:17:20;10.88;;;4.30;;
80199;SDS011;69520;44.900;-0.764;2023-10-13T11:19:51;8.43;;;4.25;;
80199;SDS011;69520;44.900;-0.764;2023-10-13T11:22:18;10.52;;;4.30;;
80199;SDS011;69520;44.900;-0.764;2023-10-13T11:25:31;10.50;;;4.30;;
80199;SDS011;69520;44.900;-0.764;2023-10-13T11:30:45;11.00;;;4.00;;
80199;SDS011;69520;44.900;-0.764;2023-10-13T11:33:15;13.30;;;4.80;;
80199;SDS011;69520;44.900;-0.764;2023-10-13T11:35:54;9.15;;;4.10;;
80199;SDS011;69520;44.900;-0.764;2023-10-13T11:38:24;11.67;;;4.27;;
80199;SDS011;69520;44.900;-0.764;2023-10-13T11:40:57;8.90;;;4.13;;
80199;SDS011;69520;44.900;-0.764;2023-10-13T11:43:33;10.43;;;4.10;;
80199;SDS011;69520;44.900;-0.764;2023-10-13T11:46:12;9.25;;;3.67;;
80199;SDS011;69520;44.900;-0.764;2023-10-13T11:48:40;8.60;;;3.70;;
80199;SDS011;69520;44.900;-0.764;2023-10-13T11:51:13;8.77;;;3.77;;
80199;SDS011;69520;44.900;-0.764;2023-10-13T11:53:44;10.05;;;4.30;;
80199;SDS011;69520;44.900;-0.764;2023-10-13T11:56:10;9.90;;;4.18;;
80199;SDS011;69520;44.900;-0.764;2023-10-13T11:58:37;9.93;;;4.00;;
80199;SDS011;69520;44.900;-0.764;2023-10-13T12:01:03;10.35;;;3.97;;
80199;SDS011;69520;44.900;-0.764;2023-10-13T12:03:39;10.53;;;4.00;;
80199;SDS011;69520;44.900;-0.764;2023-10-13T12:06:23;9.20;;;3.80;;
80199;SDS011;69520;44.900;-0.764;2023-10-13T12:09:08;8.95;;;3.80;;
80199;SDS011;69520;44.900;-0.764;2023-10-13T12:11:46;10.52;;;4.22;;
80199;SDS011;69520;44.900;-0.764;2023-10-13T12:14:14;9.18;;;4.00;;
80199;SDS011;69520;44.900;-0.764;2023-10-13T12:16:52;8.27;;;4.00;;
80199;SDS011;69520;44.900;-0.764;2023-10-13T12:19:22;8.48;;;3.60;;
80199;SDS011;69520;44.900;-0.764;2023-10-13T12:21:55;10.13;;;3.58;;
80199;SDS011;69520;44.900;-0.764;2023-10-13T12:24:22;10.40;;;4.00;;
80199;SDS011;69520;44.900;-0.764;2023-10-13T12:27:00;9.25;;;3.80;;
80199;SDS011;69520;44.900;-0.764;2023-10-13T12:29:26;10.37;;;4.00;;
80199;SDS011;69520;44.900;-0.764;2023-10-13T12:32:00;11.32;;;4.45;;
80199;SDS011;69520;44.900;-0.764;2023-10-13T12:34:37;12.23;;;3.95;;
80199;SDS011;69520;44.900;-0.764;2023-10-13T12:37:22;11.07;;;4.20;;
80199;SDS011;69520;44.900;-0.764;2023-10-13T12:40:03;10.55;;;4.03;;
80199;SDS011;69520;44.900;-0.764;2023-10-13T12:42:48;9.77;;;3.80;;
80199;SDS011;69520;44.900;-0.764;2023-10-13T12:45:32;12.55;;;4.10;;
80199;SDS011;69520;44.900;-0.764;2023-10-13T12:48:17;13.15;;;4.10;;
80199;SDS011;69520;44.900;-0.764;2023-10-13T12:51:02;10.25;;;3.90;;
80199;SDS011;69520;44.900;-0.764;2023-10-13T12:56:13;10.90;;;4.00;;
80199;SDS011;69520;44.900;-0.764;2023-10-13T12:58:40;12.13;;;3.95;;
80199;SDS011;69520;44.900;-0.764;2023-10-13T13:01:06;10.63;;;4.57;;
80199;SDS011;69520;44.900;-0.764;2023-10-13T13:03:33;11.77;;;4.43;;
80199;SDS011;69520;44.900;-0.764;2023-10-13T13:05:59;9.25;;;4.00;;
80199;SDS011;69520;44.900;-0.764;2023-10-13T13:08:32;10.10;;;4.00;;
80199;SDS011;69520;44.900;-0.764;2023-10-13T13:11:00;10.93;;;4.53;;
80199;SDS011;69520;44.900;-0.764;2023-10-13T13:13:29;10.98;;;4.43;;
80199;SDS011;69520;44.900;-0.764;2023-10-13T13:15:56;13.45;;;4.47;;
80199;SDS011;69520;44.900;-0.764;2023-10-13T13:18:22;13.63;;;4.55;;
80199;SDS011;69520;44.900;-0.764;2023-10-13T13:20:48;11.63;;;5.50;;
80199;SDS011;69520;44.900;-0.764;2023-10-13T13:23:21;9.68;;;4.60;;
80199;SDS011;69520;44.900;-0.764;2023-10-13T13:25:51;11.05;;;5.13;;
80199;SDS011;69520;44.900;-0.764;2023-10-13T13:28:17;8.70;;;4.57;;
80199;SDS011;69520;44.900;-0.764;2023-10-13T13:30:43;10.48;;;5.20;;
80199;SDS011;69520;44.900;-0.764;2023-10-13T13:33:11;13.67;;;5.47;;
80199;SDS011;69520;44.900;-0.764;2023-10-13T13:35:40;12.40;;;5.28;;
80199;SDS011;69520;44.900;-0.764;2023-10-13T13:38:13;13.02;;;5.90;;
80199;SDS011;69520;44.900;-0.764;2023-10-13T13:40:47;13.40;;;6.43;;
80199;SDS011;69520;44.900;-0.764;2023-10-13T13:43:19;11.90;;;5.70;;
80199;SDS011;69520;44.900;-0.764;2023-10-13T13:46:06;14.80;;;6.53;;
80199;SDS011;69520;44.900;-0.764;2023-10-13T13:48:35;15.30;;;7.22;;
80199;SDS011;69520;44.900;-0.764;2023-10-13T13:51:04;16.17;;;6.88;;
80199;SDS011;69520;44.900;-0.764;2023-10-13T13:53:38;16.73;;;7.43;;
80199;SDS011;69520;44.900;-0.764;2023-10-13T13:56:07;13.80;;;7.25;;
80199;SDS011;69520;44.900;-0.764;2023-10-13T13:58:34;18.47;;;7.70;;
80199;SDS011;69520;44.900;-0.764;2023-10-13T14:01:03;13.30;;;8.00;;
80199;SDS011;69520;44.900;-0.764;2023-10-13T14:03:44;17.65;;;8.40;;
80199;SDS011;69520;44.900;-0.764;2023-10-13T14:06:11;18.20;;;9.95;;
80199;SDS011;69520;44.900;-0.764;2023-10-13T14:08:46;17.60;;;11.20;;
80199;SDS011;69520;44.900;-0.764;2023-10-13T14:11:24;18.17;;;11.40;;
80199;SDS011;69520;44.900;-0.764;2023-10-13T14:14:06;15.70;;;10.13;;
80199;SDS011;69520;44.900;-0.764;2023-10-13T14:16:45;21.75;;;10.40;;
80199;SDS011;69520;44.900;-0.764;2023-10-13T14:19:15;18.67;;;11.00;;
80199;SDS011;69520;44.900;-0.764;2023-10-13T14:21:56;19.92;;;11.35;;
80199;SDS011;69520;44.900;-0.764;2023-10-13T14:24:22;17.43;;;12.13;;
80199;SDS011;69520;44.900;-0.764;2023-10-13T14:26:58;20.23;;;13.27;;
80199;SDS011;69520;44.900;-0.764;2023-10-13T14:29:32;20.05;;;13.85;;
80199;SDS011;69520;44.900;-0.764;2023-10-13T14:31:59;20.17;;;14.95;;
80199;SDS011;69520;44.900;-0.764;2023-10-13T14:34:25;25.98;;;15.80;;
80199;SDS011;69520;44.900;-0.764;2023-10-13T14:36:54;20.97;;;14.93;;
80199;SDS011;69520;44.900;-0.764;2023-10-13T14:39:20;21.05;;;14.35;;
80199;SDS011;69520;44.900;-0.764;2023-10-13T14:41:46;21.20;;;12.38;;
80199;SDS011;69520;44.900;-0.764;2023-10-13T14:44:13;21.27;;;11.30;;
80199;SDS011;69520;44.900;-0.764;2023-10-13T14:46:39;17.33;;;9.52;;
80199;SDS011;69520;44.900;-0.764;2023-10-13T14:49:06;16.27;;;9.47;;
80199;SDS011;69520;44.900;-0.764;2023-10-13T14:51:34;15.80;;;9.77;;
80199;SDS011;69520;44.900;-0.764;2023-10-13T14:54:04;14.32;;;7.55;;
80199;SDS011;69520;44.900;-0.764;2023-10-13T14:56:30;13.02;;;6.38;;
80199;SDS011;69520;44.900;-0.764;2023-10-13T14:58:56;12.65;;;5.85;;
80199;SDS011;69520;44.900;-0.764;2023-10-13T15:01:23;14.93;;;5.80;;
80199;SDS011;69520;44.900;-0.764;2023-10-13T15:03:53;16.45;;;5.82;;
80199;SDS011;69520;44.900;-0.764;2023-10-13T15:06:26;13.90;;;5.70;;
80199;SDS011;69520;44.900;-0.764;2023-10-13T15:08:57;15.20;;;5.18;;
80199;SDS011;69520;44.900;-0.764;2023-10-13T15:11:23;13.95;;;5.47;;
80199;SDS011;69520;44.900;-0.764;2023-10-13T15:13:55;14.00;;;5.33;;
80199;SDS011;69520;44.900;-0.764;2023-10-13T15:16:23;12.35;;;5.20;;
80199;SDS011;69520;44.900;-0.764;2023-10-13T15:18:49;12.93;;;4.72;;
80199;SDS011;69520;44.900;-0.764;2023-10-13T15:21:19;14.88;;;4.97;;
80199;SDS011;69520;44.900;-0.764;2023-10-13T15:23:54;12.10;;;4.80;;
80199;SDS011;69520;44.900;-0.764;2023-10-13T15:26:38;10.47;;;4.63;;
80199;SDS011;69520;44.900;-0.764;2023-10-13T15:29:07;13.95;;;5.10;;
80199;SDS011;69520;44.900;-0.764;2023-10-13T15:31:37;14.27;;;5.63;;
80199;SDS011;69520;44.900;-0.764;2023-10-13T15:34:08;16.40;;;5.72;;
80199;SDS011;69520;44.900;-0.764;2023-10-13T15:36:43;11.25;;;5.13;;
80199;SDS011;69520;44.900;-0.764;2023-10-13T15:39:12;14.40;;;5.77;;
80199;SDS011;69520;44.900;-0.764;2023-10-13T15:41:41;18.65;;;6.47;;